createdAt,value
2023-04-03T00:01:24.530Z,2.37
2023-04-03T00:03:53.836Z,2.03
2023-04-03T00:06:21.748Z,2.37
2023-04-03T00:08:50.123Z,2.13
2023-04-03T00:11:19.310Z,2.47
2023-04-03T00:13:47.864Z,1.93
2023-04-03T00:16:16.110Z,2.40
2023-04-03T00:18:46.501Z,2.30
2023-04-03T00:21:16.486Z,2.50
2023-04-03T00:23:44.492Z,2.50
2023-04-03T00:26:12.808Z,2.17
2023-04-03T00:28:42.156Z,2.43
2023-04-03T00:31:10.087Z,2.20
2023-04-03T00:33:38.426Z,2.40
2023-04-03T00:36:11.401Z,2.30
2023-04-03T00:38:42.827Z,2.43
2023-04-03T00:41:11.125Z,2.50
2023-04-03T00:43:39.311Z,2.33
2023-04-03T00:46:07.544Z,2.80
2023-04-03T00:48:39.357Z,2.50
2023-04-03T00:51:09.473Z,2.47
2023-04-03T00:53:41.792Z,2.70
2023-04-03T00:56:15.097Z,2.50
2023-04-03T00:58:49.135Z,2.23
2023-04-03T01:01:23.175Z,2.23
2023-04-03T01:03:52.155Z,2.43
2023-04-03T01:06:27.234Z,2.60
2023-04-03T01:08:57.186Z,2.40
2023-04-03T01:11:27.143Z,2.40
2023-04-03T01:13:55.475Z,2.10
2023-04-03T01:16:23.731Z,2.60
2023-04-03T01:18:51.912Z,2.40
2023-04-03T01:21:49.851Z,1.97
2023-04-03T01:24:30.435Z,2.57
2023-04-03T01:27:00.455Z,2.20
2023-04-03T01:29:29.160Z,2.73
2023-04-03T01:32:01.018Z,2.07
2023-04-03T01:34:30.880Z,2.50
2023-04-03T01:36:59.066Z,2.47
2023-04-03T01:39:27.674Z,2.23
2023-04-03T01:41:56.012Z,2.00
2023-04-03T01:44:34.662Z,2.57
2023-04-03T01:47:04.404Z,2.83
2023-04-03T01:49:32.969Z,2.37
2023-04-03T01:52:03.676Z,2.20
2023-04-03T01:54:31.570Z,2.50
2023-04-03T01:56:59.721Z,2.30
2023-04-03T01:59:29.220Z,2.50
2023-04-03T02:01:57.728Z,2.50
2023-04-03T02:04:27.290Z,2.40
2023-04-03T02:06:55.442Z,2.43
2023-04-03T02:09:23.719Z,2.57
2023-04-03T02:11:54.626Z,2.10
2023-04-03T02:14:23.060Z,2.40
2023-04-03T02:16:51.273Z,2.40
2023-04-03T02:19:19.887Z,2.30
2023-04-03T02:21:49.439Z,2.17
2023-04-03T02:24:17.866Z,2.67
2023-04-03T02:26:45.954Z,2.40
2023-04-03T02:29:14.452Z,2.70
2023-04-03T02:31:42.741Z,2.30
2023-04-03T02:34:11.327Z,2.17
2023-04-03T02:36:40.277Z,2.80
2023-04-03T02:39:12.369Z,2.33
2023-04-03T02:41:40.709Z,2.17
2023-04-03T02:44:14.948Z,2.30
2023-04-03T02:46:42.943Z,2.40
2023-04-03T02:49:10.946Z,2.40
2023-04-03T02:51:38.814Z,2.47
2023-04-03T02:54:07.048Z,2.43
2023-04-03T02:56:39.270Z,2.40
2023-04-03T02:59:07.897Z,2.33
2023-04-03T03:01:38.523Z,2.23
2023-04-03T03:04:06.750Z,2.33
2023-04-03T03:06:34.806Z,2.50
2023-04-03T03:09:02.916Z,2.43
2023-04-03T03:11:31.357Z,2.50
2023-04-03T03:14:01.116Z,2.20
2023-04-03T03:16:29.410Z,2.03
2023-04-03T03:18:59.119Z,2.13
2023-04-03T03:21:28.513Z,2.37
2023-04-03T03:23:56.944Z,1.80
2023-04-03T03:26:25.445Z,1.93
2023-04-03T03:28:53.480Z,2.27
2023-04-03T03:31:26.082Z,2.10
2023-04-03T03:33:54.187Z,2.33
2023-04-03T03:36:23.612Z,2.10
2023-04-03T03:38:51.658Z,2.37
2023-04-03T03:41:22.364Z,2.20
2023-04-03T03:43:50.686Z,2.40
2023-04-03T03:46:19.009Z,2.53
2023-04-03T03:48:48.389Z,2.60
2023-04-03T03:51:17.594Z,2.60
2023-04-03T03:53:45.968Z,2.75
2023-04-03T03:56:18.575Z,2.40
2023-04-03T03:58:47.680Z,2.72
2023-04-03T04:01:16.221Z,2.33
2023-04-03T04:03:49.717Z,2.30
2023-04-03T04:06:21.743Z,2.40
2023-04-03T04:08:50.439Z,2.50
2023-04-03T04:11:18.675Z,2.65
2023-04-03T04:13:49.016Z,2.58
2023-04-03T04:16:19.058Z,2.50
2023-04-03T04:18:52.036Z,2.33
2023-04-03T04:21:21.214Z,2.42
2023-04-03T04:23:52.336Z,2.50
2023-04-03T04:26:22.860Z,2.70
2023-04-03T04:28:51.316Z,2.50
2023-04-03T04:31:20.922Z,2.33
2023-04-03T04:33:51.376Z,2.28
2023-04-03T04:36:20.292Z,2.40
2023-04-03T04:38:49.046Z,2.60
2023-04-03T04:41:22.372Z,2.30
2023-04-03T04:43:51.767Z,2.50
2023-04-03T04:46:20.889Z,2.30
2023-04-03T04:48:55.892Z,2.30
2023-04-03T04:51:25.116Z,2.22
2023-04-03T04:53:55.974Z,2.30
2023-04-03T04:56:26.767Z,2.17
2023-04-03T04:58:57.435Z,2.30
2023-04-03T05:01:27.562Z,2.40
2023-04-03T05:04:04.977Z,2.20
2023-04-03T05:06:38.002Z,2.55
2023-04-03T05:09:10.987Z,2.40
2023-04-03T05:11:40.352Z,2.45
2023-04-03T05:14:10.403Z,2.58
2023-04-03T05:16:39.095Z,2.47
2023-04-03T05:19:11.319Z,2.53
2023-04-03T05:21:42.247Z,2.47
2023-04-03T05:24:15.804Z,2.40
2023-04-03T05:26:46.031Z,2.20
2023-04-03T05:29:16.026Z,2.33
2023-04-03T05:31:44.235Z,2.30
2023-04-03T05:34:16.300Z,2.45
2023-04-03T05:36:46.047Z,2.13
2023-04-03T05:39:23.452Z,2.20
2023-04-03T05:42:12.610Z,2.50
2023-04-03T05:44:42.073Z,2.50
2023-04-03T05:47:10.247Z,2.33
2023-04-03T05:49:42.030Z,2.30
2023-04-03T05:52:20.823Z,2.13
2023-04-03T05:54:49.809Z,2.30
2023-04-03T05:57:24.919Z,2.07
2023-04-03T05:59:56.809Z,2.17
2023-04-03T06:02:28.489Z,2.47
2023-04-03T06:05:07.206Z,2.20
2023-04-03T06:07:51.137Z,2.50
2023-04-03T06:10:21.533Z,2.33
2023-04-03T06:12:51.450Z,2.40
2023-04-03T06:15:29.838Z,2.30
2023-04-03T06:18:18.707Z,2.50
2023-04-03T06:20:48.459Z,2.38
2023-04-03T06:23:16.380Z,2.43
2023-04-03T06:25:44.389Z,2.30
2023-04-03T06:28:12.915Z,2.22
2023-04-03T06:30:41.224Z,2.23
2023-04-03T06:33:10.053Z,2.38
2023-04-03T06:35:39.522Z,2.55
2023-04-03T06:38:10.832Z,2.50
2023-04-03T06:40:40.552Z,2.35
2023-04-03T06:43:09.806Z,2.50
2023-04-03T06:45:38.021Z,2.57
2023-04-03T06:48:06.762Z,2.50
2023-04-03T06:50:34.843Z,2.63
2023-04-03T06:53:05.114Z,2.60
2023-04-03T06:55:35.169Z,2.60
2023-04-03T06:58:04.980Z,2.50
2023-04-03T07:00:39.272Z,2.72
2023-04-03T07:03:10.308Z,2.43
2023-04-03T07:05:38.777Z,2.70
2023-04-03T07:08:08.872Z,2.80
2023-04-03T07:10:40.054Z,2.55
2023-04-03T07:13:12.305Z,2.88
2023-04-03T07:15:49.298Z,2.63
2023-04-03T07:18:28.912Z,2.67
2023-04-03T07:20:57.702Z,2.47
2023-04-03T07:23:26.102Z,2.40
2023-04-03T07:25:56.279Z,2.40
2023-04-03T07:28:24.790Z,2.50
2023-04-03T07:30:55.942Z,2.83
2023-04-03T07:33:26.064Z,2.73
2023-04-03T07:35:55.810Z,2.53
2023-04-03T07:38:26.343Z,2.25
2023-04-03T07:40:56.018Z,2.70
2023-04-03T07:43:25.714Z,2.47
2023-04-03T07:45:54.997Z,2.70
2023-04-03T07:48:24.132Z,2.70
2023-04-03T07:50:54.688Z,2.70
2023-04-03T07:53:22.587Z,2.40
2023-04-03T07:56:00.733Z,2.70
2023-04-03T07:58:28.673Z,2.50
2023-04-03T08:01:00.694Z,2.40
2023-04-03T08:03:28.955Z,2.33
2023-04-03T08:05:57.212Z,2.40
2023-04-03T08:08:25.795Z,2.50
2023-04-03T08:10:56.058Z,2.85
2023-04-03T08:13:27.560Z,2.55
2023-04-03T08:15:55.496Z,2.50
2023-04-03T08:18:25.489Z,2.40
2023-04-03T08:20:53.769Z,2.30
2023-04-03T08:23:22.068Z,2.60
2023-04-03T08:25:49.884Z,2.40
2023-04-03T08:28:17.773Z,2.90
2023-04-03T08:30:47.114Z,2.57
2023-04-03T08:33:16.613Z,2.60
2023-04-03T08:35:44.801Z,2.40
2023-04-03T08:38:12.858Z,2.33
2023-04-03T08:40:42.378Z,2.58
2023-04-03T08:43:32.964Z,2.53
2023-04-03T08:46:07.284Z,2.63
2023-04-03T08:48:38.548Z,2.22
2023-04-03T08:51:16.186Z,2.77
2023-04-03T08:53:51.695Z,2.37
2023-04-03T08:56:22.174Z,2.55
2023-04-03T08:58:56.074Z,2.50
2023-04-03T09:01:28.614Z,2.42
2023-04-03T09:03:56.656Z,1.97
2023-04-03T09:06:30.118Z,2.20
2023-04-03T09:09:09.709Z,1.90
2023-04-03T09:11:48.847Z,1.70
2023-04-03T09:14:24.332Z,2.17
2023-04-03T09:16:58.878Z,2.20
2023-04-03T09:19:38.311Z,1.90
2023-04-03T09:22:18.301Z,2.00
2023-04-03T09:24:49.460Z,1.97
2023-04-03T09:27:17.524Z,2.00
2023-04-03T09:29:47.174Z,1.70
2023-04-03T09:32:27.476Z,1.83
2023-04-03T09:34:59.745Z,1.87
2023-04-03T09:37:39.908Z,2.07
2023-04-03T09:40:31.943Z,1.93
2023-04-03T09:43:01.970Z,2.23
2023-04-03T09:45:32.751Z,2.00
2023-04-03T09:48:15.480Z,1.83
2023-04-03T09:51:07.374Z,2.20
2023-04-03T09:53:51.611Z,1.60
2023-04-03T09:56:27.162Z,1.77
2023-04-03T09:59:29.717Z,1.87
2023-04-03T10:02:05.041Z,1.70
2023-04-03T10:04:43.031Z,1.70
2023-04-03T10:07:31.349Z,2.20
2023-04-03T10:10:03.344Z,1.67
2023-04-03T10:12:37.821Z,1.93
2023-04-03T10:15:15.071Z,2.10
2023-04-03T10:18:06.388Z,1.90
2023-04-03T10:20:54.328Z,1.50
2023-04-03T10:23:57.483Z,1.90
2023-04-03T10:26:35.003Z,1.70
2023-04-03T10:29:22.388Z,2.07
2023-04-03T10:32:05.558Z,1.50
2023-04-03T10:35:05.099Z,1.70
2023-04-03T10:37:49.023Z,1.90
2023-04-03T10:40:26.318Z,2.03
2023-04-03T10:43:04.275Z,1.50
2023-04-03T10:45:53.943Z,1.77
2023-04-03T10:49:11.781Z,1.77
2023-04-03T10:52:06.415Z,1.30
2023-04-03T10:54:42.929Z,1.80
2023-04-03T10:57:14.667Z,1.40
2023-04-03T10:59:50.456Z,1.63
2023-04-03T11:02:28.545Z,1.30
2023-04-03T11:05:04.644Z,1.30
2023-04-03T11:07:49.312Z,1.37
2023-04-03T11:10:39.258Z,1.40
2023-04-03T11:13:19.763Z,1.40
2023-04-03T11:15:59.114Z,1.57
2023-04-03T11:18:52.546Z,1.33
2023-04-03T11:21:25.423Z,1.23
2023-04-03T11:23:55.590Z,1.50
2023-04-03T11:26:32.029Z,1.50
2023-04-03T11:29:06.335Z,1.53
2023-04-03T11:31:54.803Z,1.30
2023-04-03T11:34:42.651Z,1.20
2023-04-03T11:37:24.362Z,1.30
2023-04-03T11:39:58.656Z,1.50
2023-04-03T11:42:36.524Z,1.30
2023-04-03T11:45:33.141Z,1.80
2023-04-03T11:48:13.325Z,1.67
2023-04-03T11:50:52.358Z,1.43
2023-04-03T11:53:37.682Z,1.47
2023-04-03T11:56:22.953Z,1.60
2023-04-03T11:59:21.711Z,1.50
2023-04-03T12:01:53.555Z,1.73
2023-04-03T12:04:23.557Z,1.47
2023-04-03T12:07:16.230Z,1.50
2023-04-03T12:10:31.716Z,1.57
2023-04-03T12:16:01.786Z,1.80
2023-04-03T12:19:04.099Z,1.53
2023-04-03T12:22:09.080Z,1.60
2023-04-03T12:24:40.256Z,1.50
2023-04-03T12:27:24.240Z,1.40
2023-04-03T12:30:02.220Z,1.60
2023-04-03T12:33:12.572Z,1.57
2023-04-03T12:35:50.563Z,1.67
2023-04-03T12:38:39.953Z,1.40
2023-04-03T12:41:23.666Z,1.37
2023-04-03T12:44:03.688Z,1.40
2023-04-03T12:46:39.554Z,1.60
2023-04-03T12:49:25.175Z,1.50
2023-04-03T12:51:54.587Z,1.53
2023-04-03T12:54:28.089Z,1.37
2023-04-03T12:57:12.249Z,1.70
2023-04-03T12:59:42.559Z,1.30
2023-04-03T13:02:22.485Z,1.50
2023-04-03T13:04:51.480Z,1.60
2023-04-03T13:07:31.885Z,1.30
2023-04-03T13:10:02.501Z,1.53
2023-04-03T13:12:32.387Z,1.40
2023-04-03T13:15:02.351Z,1.80
2023-04-03T13:17:30.889Z,1.67
2023-04-03T13:20:13.133Z,1.50
2023-04-03T13:22:50.901Z,1.40
2023-04-03T13:25:22.032Z,1.63
2023-04-03T13:27:52.240Z,1.70
2023-04-03T13:30:26.772Z,1.70
2023-04-03T13:32:56.111Z,1.67
2023-04-03T13:35:31.433Z,1.30
2023-04-03T13:38:03.525Z,1.63
2023-04-03T13:40:41.556Z,1.37
2023-04-03T13:43:23.057Z,1.67
2023-04-03T13:46:01.572Z,1.47
2023-04-03T13:48:37.876Z,1.33
2023-04-03T13:51:09.608Z,1.50
2023-04-03T13:53:46.992Z,1.60
2023-04-03T13:56:22.978Z,1.50
2023-04-03T13:58:57.677Z,1.40
2023-04-03T14:01:26.785Z,1.50
2023-04-03T14:03:58.552Z,1.30
2023-04-03T14:06:27.117Z,1.70
2023-04-03T14:08:56.351Z,1.70
2023-04-03T14:11:29.693Z,1.27
2023-04-03T14:14:02.405Z,1.50
2023-04-03T14:16:34.467Z,1.67
2023-04-03T14:19:02.683Z,1.57
2023-04-03T14:21:30.699Z,1.30
2023-04-03T14:24:03.258Z,1.37
2023-04-03T14:26:31.958Z,1.40
2023-04-03T14:29:00.139Z,1.40
2023-04-03T14:31:28.684Z,1.50
2023-04-03T14:33:57.501Z,1.27
2023-04-03T14:36:29.553Z,1.20
2023-04-03T14:38:58.669Z,1.37
2023-04-03T14:41:29.026Z,1.50
2023-04-03T14:43:57.104Z,1.70
2023-04-03T14:46:38.669Z,1.70
2023-04-03T14:49:20.102Z,1.93
2023-04-03T14:51:48.224Z,1.60
2023-04-03T14:54:22.588Z,1.50
2023-04-03T14:56:51.961Z,1.40
2023-04-03T14:59:21.092Z,1.60
2023-04-03T15:01:49.145Z,1.47
2023-04-03T15:04:18.545Z,1.50
2023-04-03T15:06:47.477Z,1.70
2023-04-03T15:09:22.488Z,1.77
2023-04-03T15:11:52.796Z,1.53
2023-04-03T15:14:35.264Z,1.50
2023-04-03T15:17:06.114Z,1.30
2023-04-03T15:19:38.596Z,1.33
2023-04-03T15:22:06.796Z,1.50
2023-04-03T15:24:34.609Z,1.30
2023-04-03T15:27:04.140Z,1.53
2023-04-03T15:29:32.038Z,1.50
2023-04-03T15:32:00.060Z,1.70
2023-04-03T15:34:28.141Z,1.50
2023-04-03T15:36:56.214Z,1.73
2023-04-03T15:39:24.903Z,2.00
2023-04-03T15:41:53.314Z,1.97
2023-04-03T15:44:24.608Z,2.00
2023-04-03T15:46:52.596Z,1.40
2023-04-03T15:49:23.306Z,1.80
2023-04-03T15:51:51.806Z,1.67
2023-04-03T15:54:20.341Z,1.20
2023-04-03T15:56:48.269Z,1.50
2023-04-03T15:59:16.333Z,1.63
2023-04-03T16:01:45.975Z,1.60
2023-04-03T16:04:15.589Z,1.50
2023-04-03T16:06:44.109Z,1.70
2023-04-03T16:09:12.785Z,1.70
2023-04-03T16:11:41.181Z,1.70
2023-04-03T16:14:09.875Z,2.03
2023-04-03T16:16:38.519Z,1.63
2023-04-03T16:19:08.171Z,1.60
2023-04-03T16:21:36.121Z,1.67
2023-04-03T16:24:05.300Z,1.70
2023-04-03T16:26:33.794Z,1.77
2023-04-03T16:29:01.747Z,1.80
2023-04-03T16:31:30.207Z,1.50
2023-04-03T16:33:58.537Z,1.60
2023-04-03T16:36:30.394Z,1.70
2023-04-03T16:38:58.459Z,1.53
2023-04-03T16:41:27.342Z,1.80
2023-04-03T16:43:55.823Z,1.83
2023-04-03T16:46:24.721Z,1.83
2023-04-03T16:48:53.271Z,1.60
2023-04-03T16:51:32.101Z,1.83
2023-04-03T16:54:22.790Z,1.80
2023-04-03T16:56:51.759Z,1.80
2023-04-03T16:59:20.126Z,1.73
2023-04-03T17:01:48.130Z,1.80
2023-04-03T17:04:16.736Z,1.90
2023-04-03T17:06:44.870Z,1.60
2023-04-03T17:09:14.261Z,1.70
2023-04-03T17:11:45.104Z,1.83
2023-04-03T17:14:16.592Z,1.87
2023-04-03T17:16:44.880Z,1.50
2023-04-03T17:19:14.122Z,1.70
2023-04-03T17:21:42.370Z,1.90
2023-04-03T17:24:13.528Z,2.10
2023-04-03T17:26:43.552Z,1.80
2023-04-03T17:29:11.609Z,2.00
2023-04-03T17:31:42.079Z,2.00
2023-04-03T17:34:12.077Z,1.63
2023-04-03T17:36:41.767Z,1.63
2023-04-03T17:39:10.109Z,1.77
2023-04-03T17:41:40.718Z,1.67
2023-04-03T17:44:10.363Z,2.10
2023-04-03T17:46:38.241Z,1.80
2023-04-03T17:49:06.298Z,1.80
2023-04-03T17:51:37.182Z,1.90
2023-04-03T17:54:06.580Z,1.67
2023-04-03T17:56:35.456Z,1.97
2023-04-03T17:59:07.252Z,1.70
2023-04-03T18:01:37.801Z,1.53
2023-04-03T18:04:06.974Z,1.60
2023-04-03T18:06:39.937Z,1.80
2023-04-03T18:09:12.107Z,1.50
2023-04-03T18:11:41.401Z,2.00
2023-04-03T18:14:22.104Z,1.70
2023-04-03T18:17:09.160Z,2.00
2023-04-03T18:19:39.424Z,1.80
2023-04-03T18:22:14.066Z,1.97
2023-04-03T18:24:43.920Z,1.53
2023-04-03T18:27:14.979Z,1.70
2023-04-03T18:29:46.109Z,2.00
2023-04-03T18:32:20.864Z,1.40
2023-04-03T18:34:49.138Z,2.03
2023-04-03T18:37:26.409Z,1.77
2023-04-03T18:40:06.416Z,1.60
2023-04-03T18:42:36.784Z,1.93
2023-04-03T18:45:15.820Z,1.70
2023-04-03T18:47:54.336Z,1.90
2023-04-03T18:50:31.322Z,1.50
2023-04-03T18:52:59.855Z,1.70
2023-04-03T18:55:28.283Z,1.70
2023-04-03T18:57:59.298Z,1.90
2023-04-03T19:00:27.934Z,1.87
2023-04-03T19:02:57.568Z,1.50
2023-04-03T19:05:27.209Z,2.10
2023-04-03T19:07:56.050Z,2.13
2023-04-03T19:10:27.254Z,1.60
2023-04-03T19:12:58.014Z,1.80
2023-04-03T19:15:28.697Z,1.80
2023-04-03T19:17:58.470Z,1.80
2023-04-03T19:20:26.692Z,2.30
2023-04-03T19:22:55.225Z,1.97
2023-04-03T19:25:23.697Z,1.80
2023-04-03T19:27:52.521Z,1.80
2023-04-03T19:30:20.912Z,1.70
2023-04-03T19:32:48.979Z,2.00
2023-04-03T19:35:18.617Z,2.00
2023-04-03T19:37:51.211Z,2.00
2023-04-03T19:40:19.661Z,1.67
2023-04-03T19:42:48.035Z,1.83
2023-04-03T19:45:18.131Z,1.80
2023-04-03T19:47:47.331Z,1.73
2023-04-03T19:50:16.362Z,1.73
2023-04-03T19:52:46.068Z,1.70
2023-04-03T19:55:14.802Z,1.60
2023-04-03T19:57:43.093Z,1.47
2023-04-03T20:00:13.898Z,1.77
2023-04-03T20:02:42.003Z,1.67
2023-04-03T20:05:11.323Z,1.80
2023-04-03T20:07:39.494Z,1.80
2023-04-03T20:10:09.664Z,1.63
2023-04-03T20:12:38.734Z,1.50
2023-04-03T20:15:09.165Z,1.47
2023-04-03T20:17:38.327Z,2.00
2023-04-03T20:20:07.927Z,1.40
2023-04-03T20:22:39.698Z,1.40
2023-04-03T20:25:15.223Z,1.50
2023-04-03T20:27:45.703Z,1.40
2023-04-03T20:30:15.114Z,1.30
2023-04-03T20:32:43.253Z,1.20
2023-04-03T20:35:12.001Z,1.30
2023-04-03T20:37:40.198Z,1.50
2023-04-03T20:40:11.165Z,1.97
2023-04-03T20:42:39.193Z,1.60
2023-04-03T20:45:08.749Z,1.60
2023-04-03T20:47:37.447Z,1.40
2023-04-03T20:50:06.136Z,1.10
2023-04-03T20:52:36.275Z,1.00
2023-04-03T20:55:05.087Z,1.47
2023-04-03T20:57:35.289Z,1.20
2023-04-03T21:00:05.282Z,1.50
2023-04-03T21:02:34.511Z,1.37
2023-04-03T21:05:06.738Z,1.57
2023-04-03T21:08:12.122Z,1.40
2023-04-03T21:11:17.768Z,1.33
2023-04-03T21:14:27.838Z,1.33
2023-04-03T21:16:55.699Z,1.50
2023-04-03T21:19:25.474Z,1.40
2023-04-03T21:21:55.026Z,1.53
2023-04-03T21:24:24.042Z,1.60
2023-04-03T21:26:52.133Z,1.40
2023-04-03T21:29:20.076Z,1.40
2023-04-03T21:31:50.202Z,1.20
2023-04-03T21:34:19.856Z,1.30
2023-04-03T21:36:51.705Z,1.40
2023-04-03T21:39:19.839Z,1.40
2023-04-03T21:41:47.858Z,1.40
2023-04-03T21:44:16.765Z,1.47
2023-04-03T21:46:44.854Z,1.40
2023-04-03T21:49:13.133Z,1.20
2023-04-03T21:51:41.948Z,1.43
2023-04-03T21:54:11.248Z,1.40
2023-04-03T21:56:39.385Z,1.57
2023-04-03T21:59:07.596Z,1.40
2023-04-03T22:01:35.841Z,1.40
2023-04-03T22:04:03.916Z,1.20
2023-04-03T22:06:34.189Z,1.10
2023-04-03T22:09:02.309Z,1.40
2023-04-03T22:11:31.692Z,1.60
2023-04-03T22:14:01.146Z,1.57
2023-04-03T22:16:29.176Z,1.73
2023-04-03T22:18:59.201Z,1.47
2023-04-03T22:21:27.944Z,1.20
2023-04-03T22:23:56.157Z,1.20
2023-04-03T22:26:24.257Z,1.63
2023-04-03T22:28:53.501Z,1.37
2023-04-03T22:31:21.632Z,1.30
2023-04-03T22:33:49.819Z,1.27
2023-04-03T22:36:18.101Z,1.13
2023-04-03T22:38:46.894Z,1.70
2023-04-03T22:41:17.570Z,1.57
2023-04-03T22:43:45.871Z,1.20
2023-04-03T22:46:15.640Z,1.40
2023-04-03T22:48:45.399Z,1.60
2023-04-03T22:51:14.118Z,1.50
2023-04-03T22:53:42.399Z,1.30
2023-04-03T22:56:13.918Z,1.70
2023-04-03T22:58:42.327Z,1.33
2023-04-03T23:01:14.963Z,1.57
2023-04-03T23:03:44.769Z,1.30
2023-04-03T23:06:13.539Z,1.80
2023-04-03T23:08:42.494Z,1.70
2023-04-03T23:11:10.788Z,1.37
2023-04-03T23:13:41.203Z,1.40
2023-04-03T23:16:09.173Z,1.47
2023-04-03T23:18:39.885Z,1.37
2023-04-03T23:21:09.626Z,1.20
2023-04-03T23:26:05.705Z,1.23
2023-04-03T23:28:36.864Z,1.23
2023-04-03T23:31:06.891Z,1.70
2023-04-03T23:33:35.457Z,1.52
2023-04-03T23:36:07.894Z,1.90
2023-04-03T23:38:37.639Z,1.60
2023-04-03T23:41:06.011Z,1.60
2023-04-03T23:43:33.901Z,1.65
2023-04-03T23:46:02.841Z,1.70
2023-04-03T23:48:31.096Z,1.60
2023-04-03T23:50:59.087Z,1.80
2023-04-03T23:53:27.174Z,1.90
2023-04-03T23:55:56.507Z,1.73
2023-04-03T23:58:24.698Z,1.87
